sensor_id;sensor_type;location;lat;lon;timestamp;temperature;humidity
16700;DHT22;8466;52.286;21.124;2023-01-15T00:00:23;5.00;99.90
16700;DHT22;8466;52.286;21.124;2023-01-15T00:02:52;5.00;99.90
16700;DHT22;8466;52.286;21.124;2023-01-15T00:05:23;5.10;99.90
16700;DHT22;8466;52.286;21.124;2023-01-15T00:07:53;5.10;99.90
16700;DHT22;8466;52.286;21.124;2023-01-15T00:10:22;5.10;99.90
16700;DHT22;8466;52.286;21.124;2023-01-15T00:12:51;5.00;99.90
16700;DHT22;8466;52.286;21.124;2023-01-15T00:15:20;4.90;99.90
16700;DHT22;8466;52.286;21.124;2023-01-15T00:17:50;5.00;99.90
16700;DHT22;8466;52.286;21.124;2023-01-15T00:20:19;5.00;99.90
16700;DHT22;8466;52.286;21.124;2023-01-15T00:22:49;5.00;99.90
16700;DHT22;8466;52.286;21.124;2023-01-15T00:25:20;4.90;99.90
16700;DHT22;8466;52.286;21.124;2023-01-15T00:28:06;4.80;99.90
16700;DHT22;8466;52.286;21.124;2023-01-15T00:30:39;4.80;99.90
16700;DHT22;8466;52.286;21.124;2023-01-15T00:33:09;4.80;99.90
16700;DHT22;8466;52.286;21.124;2023-01-15T00:35:38;4.80;99.90
16700;DHT22;8466;52.286;21.124;2023-01-15T00:38:07;4.80;99.90
16700;DHT22;8466;52.286;21.124;2023-01-15T00:40:37;4.80;99.90
16700;DHT22;8466;52.286;21.124;2023-01-15T00:43:06;4.90;99.90
16700;DHT22;8466;52.286;21.124;2023-01-15T00:45:35;4.90;99.90
16700;DHT22;8466;52.286;21.124;2023-01-15T00:48:04;4.90;99.90
16700;DHT22;8466;52.286;21.124;2023-01-15T00:50:36;4.80;99.90
16700;DHT22;8466;52.286;21.124;2023-01-15T00:53:05;4.80;99.90
16700;DHT22;8466;52.286;21.124;2023-01-15T00:55:34;4.80;99.90
16700;DHT22;8466;52.286;21.124;2023-01-15T00:58:05;4.80;99.90
16700;DHT22;8466;52.286;21.124;2023-01-15T01:00:34;4.90;99.90
16700;DHT22;8466;52.286;21.124;2023-01-15T01:03:04;4.90;99.90
16700;DHT22;8466;52.286;21.124;2023-01-15T01:05:33;4.90;99.90
16700;DHT22;8466;52.286;21.124;2023-01-15T01:08:02;5.00;99.90
16700;DHT22;8466;52.286;21.124;2023-01-15T01:10:31;5.00;99.90
16700;DHT22;8466;52.286;21.124;2023-01-15T01:13:00;5.00;99.90
16700;DHT22;8466;52.286;21.124;2023-01-15T01:15:34;4.90;99.90
16700;DHT22;8466;52.286;21.124;2023-01-15T01:18:04;4.90;99.90
16700;DHT22;8466;52.286;21.124;2023-01-15T01:20:37;4.90;99.90
16700;DHT22;8466;52.286;21.124;2023-01-15T01:23:06;4.80;99.90
16700;DHT22;8466;52.286;21.124;2023-01-15T01:25:36;4.80;99.90
16700;DHT22;8466;52.286;21.124;2023-01-15T01:28:05;4.80;99.90
16700;DHT22;8466;52.286;21.124;2023-01-15T01:30:37;4.60;99.90
16700;DHT22;8466;52.286;21.124;2023-01-15T01:33:06;4.70;99.90
16700;DHT22;8466;52.286;21.124;2023-01-15T01:35:36;4.60;99.90
16700;DHT22;8466;52.286;21.124;2023-01-15T01:38:06;4.70;99.90
16700;DHT22;8466;52.286;21.124;2023-01-15T01:40:37;4.60;99.90
16700;DHT22;8466;52.286;21.124;2023-01-15T01:43:17;4.60;99.90
16700;DHT22;8466;52.286;21.124;2023-01-15T01:45:49;4.50;99.90
16700;DHT22;8466;52.286;21.124;2023-01-15T01:48:22;4.50;99.90
16700;DHT22;8466;52.286;21.124;2023-01-15T01:50:57;4.50;99.90
16700;DHT22;8466;52.286;21.124;2023-01-15T01:53:29;4.40;99.90
16700;DHT22;8466;52.286;21.124;2023-01-15T01:55:58;4.40;99.90
16700;DHT22;8466;52.286;21.124;2023-01-15T01:58:30;4.30;99.90
16700;DHT22;8466;52.286;21.124;2023-01-15T02:01:01;4.30;99.90
16700;DHT22;8466;52.286;21.124;2023-01-15T02:03:33;4.20;99.90
16700;DHT22;8466;52.286;21.124;2023-01-15T02:06:07;4.20;99.90
16700;DHT22;8466;52.286;21.124;2023-01-15T02:08:36;4.30;99.90
16700;DHT22;8466;52.286;21.124;2023-01-15T02:11:13;4.20;99.90
16700;DHT22;8466;52.286;21.124;2023-01-15T02:13:48;4.20;99.90
16700;DHT22;8466;52.286;21.124;2023-01-15T02:16:24;4.20;99.90
16700;DHT22;8466;52.286;21.124;2023-01-15T02:19:01;4.20;99.90
16700;DHT22;8466;52.286;21.124;2023-01-15T02:21:47;4.20;99.90
16700;DHT22;8466;52.286;21.124;2023-01-15T02:24:24;4.10;99.90
16700;DHT22;8466;52.286;21.124;2023-01-15T02:27:12;4.10;99.90
16700;DHT22;8466;52.286;21.124;2023-01-15T02:29:48;4.00;99.90
16700;DHT22;8466;52.286;21.124;2023-01-15T02:32:22;4.00;99.90
16700;DHT22;8466;52.286;21.124;2023-01-15T02:34:53;4.10;99.90
16700;DHT22;8466;52.286;21.124;2023-01-15T02:37:29;4.10;99.90
16700;DHT22;8466;52.286;21.124;2023-01-15T02:40:02;4.20;99.90
16700;DHT22;8466;52.286;21.124;2023-01-15T02:42:35;4.30;99.90
16700;DHT22;8466;52.286;21.124;2023-01-15T02:45:06;4.30;99.90
16700;DHT22;8466;52.286;21.124;2023-01-15T02:47:39;4.30;99.90
16700;DHT22;8466;52.286;21.124;2023-01-15T02:50:13;4.30;99.90
16700;DHT22;8466;52.286;21.124;2023-01-15T02:52:46;4.40;99.90
16700;DHT22;8466;52.286;21.124;2023-01-15T02:55:19;4.50;99.90
16700;DHT22;8466;52.286;21.124;2023-01-15T02:57:54;4.40;99.90
16700;DHT22;8466;52.286;21.124;2023-01-15T03:00:28;4.30;99.90
16700;DHT22;8466;52.286;21.124;2023-01-15T03:03:02;4.20;99.90
16700;DHT22;8466;52.286;21.124;2023-01-15T03:05:39;4.20;99.90
16700;DHT22;8466;52.286;21.124;2023-01-15T03:08:11;4.10;99.90
16700;DHT22;8466;52.286;21.124;2023-01-15T03:10:45;4.10;99.90
16700;DHT22;8466;52.286;21.124;2023-01-15T03:13:20;4.10;99.90
16700;DHT22;8466;52.286;21.124;2023-01-15T03:15:57;4.10;99.90
16700;DHT22;8466;52.286;21.124;2023-01-15T03:18:49;4.00;99.90
16700;DHT22;8466;52.286;21.124;2023-01-15T03:21:25;4.00;99.90
16700;DHT22;8466;52.286;21.124;2023-01-15T03:23:59;4.00;99.90
16700;DHT22;8466;52.286;21.124;2023-01-15T03:26:32;4.00;99.90
16700;DHT22;8466;52.286;21.124;2023-01-15T03:29:03;4.00;99.90
16700;DHT22;8466;52.286;21.124;2023-01-15T03:31:33;4.00;99.90
16700;DHT22;8466;52.286;21.124;2023-01-15T03:34:04;4.00;99.90
16700;DHT22;8466;52.286;21.124;2023-01-15T03:36:33;4.10;99.90
16700;DHT22;8466;52.286;21.124;2023-01-15T03:39:05;4.20;99.90
16700;DHT22;8466;52.286;21.124;2023-01-15T03:41:44;4.30;99.90
16700;DHT22;8466;52.286;21.124;2023-01-15T03:44:26;4.30;99.90
16700;DHT22;8466;52.286;21.124;2023-01-15T03:47:11;4.40;99.90
16700;DHT22;8466;52.286;21.124;2023-01-15T03:49:53;4.40;99.90
16700;DHT22;8466;52.286;21.124;2023-01-15T03:52:30;4.40;99.90
16700;DHT22;8466;52.286;21.124;2023-01-15T03:55:09;4.50;99.90
16700;DHT22;8466;52.286;21.124;2023-01-15T03:57:42;4.40;99.90
16700;DHT22;8466;52.286;21.124;2023-01-15T04:00:20;4.50;99.90
16700;DHT22;8466;52.286;21.124;2023-01-15T04:02:54;4.50;99.90
16700;DHT22;8466;52.286;21.124;2023-01-15T04:05:24;4.50;99.90
16700;DHT22;8466;52.286;21.124;2023-01-15T04:07:56;4.60;99.90
16700;DHT22;8466;52.286;21.124;2023-01-15T04:10:26;4.60;99.90
16700;DHT22;8466;52.286;21.124;2023-01-15T04:12:55;4.60;99.90
16700;DHT22;8466;52.286;21.124;2023-01-15T04:15:25;4.60;99.90
16700;DHT22;8466;52.286;21.124;2023-01-15T04:17:54;4.60;99.90
16700;DHT22;8466;52.286;21.124;2023-01-15T04:20:23;4.70;99.90
16700;DHT22;8466;52.286;21.124;2023-01-15T04:22:52;4.70;99.90
16700;DHT22;8466;52.286;21.124;2023-01-15T04:25:22;4.70;99.90
16700;DHT22;8466;52.286;21.124;2023-01-15T04:27:53;4.80;99.90
16700;DHT22;8466;52.286;21.124;2023-01-15T04:30:22;4.80;99.90
16700;DHT22;8466;52.286;21.124;2023-01-15T04:32:53;4.80;99.90
16700;DHT22;8466;52.286;21.124;2023-01-15T04:35:22;4.80;99.90
16700;DHT22;8466;52.286;21.124;2023-01-15T04:37:54;4.90;99.90
16700;DHT22;8466;52.286;21.124;2023-01-15T04:40:26;4.80;99.90
16700;DHT22;8466;52.286;21.124;2023-01-15T04:43:13;4.80;99.90
16700;DHT22;8466;52.286;21.124;2023-01-15T04:46:14;4.70;99.90
16700;DHT22;8466;52.286;21.124;2023-01-15T04:48:45;4.70;99.90
16700;DHT22;8466;52.286;21.124;2023-01-15T04:51:14;4.70;99.90
16700;DHT22;8466;52.286;21.124;2023-01-15T04:53:43;4.60;99.90
16700;DHT22;8466;52.286;21.124;2023-01-15T04:56:12;4.60;99.90
16700;DHT22;8466;52.286;21.124;2023-01-15T04:58:41;4.70;99.90
16700;DHT22;8466;52.286;21.124;2023-01-15T05:01:11;4.70;99.90
16700;DHT22;8466;52.286;21.124;2023-01-15T05:03:43;4.70;99.90
16700;DHT22;8466;52.286;21.124;2023-01-15T05:06:12;4.70;99.90
16700;DHT22;8466;52.286;21.124;2023-01-15T05:08:47;4.50;99.90
16700;DHT22;8466;52.286;21.124;2023-01-15T05:11:16;4.60;99.90
16700;DHT22;8466;52.286;21.124;2023-01-15T05:13:45;4.60;99.90
16700;DHT22;8466;52.286;21.124;2023-01-15T05:16:15;4.60;99.90
16700;DHT22;8466;52.286;21.124;2023-01-15T05:18:46;4.60;99.90
16700;DHT22;8466;52.286;21.124;2023-01-15T05:21:17;4.60;99.90
16700;DHT22;8466;52.286;21.124;2023-01-15T05:23:48;4.70;99.90
16700;DHT22;8466;52.286;21.124;2023-01-15T05:26:19;4.70;99.90
16700;DHT22;8466;52.286;21.124;2023-01-15T05:28:49;4.60;99.90
16700;DHT22;8466;52.286;21.124;2023-01-15T05:31:20;4.60;99.90
16700;DHT22;8466;52.286;21.124;2023-01-15T05:33:52;4.60;99.90
16700;DHT22;8466;52.286;21.124;2023-01-15T05:36:23;4.60;99.90
16700;DHT22;8466;52.286;21.124;2023-01-15T05:38:53;4.60;99.90
16700;DHT22;8466;52.286;21.124;2023-01-15T05:41:22;4.60;99.90
16700;DHT22;8466;52.286;21.124;2023-01-15T05:44:10;4.60;99.90
16700;DHT22;8466;52.286;21.124;2023-01-15T05:46:41;4.70;99.90
16700;DHT22;8466;52.286;21.124;2023-01-15T05:49:13;4.70;99.90
16700;DHT22;8466;52.286;21.124;2023-01-15T05:51:41;4.80;99.90
16700;DHT22;8466;52.286;21.124;2023-01-15T05:54:12;4.90;99.90
16700;DHT22;8466;52.286;21.124;2023-01-15T05:56:42;4.90;99.90
16700;DHT22;8466;52.286;21.124;2023-01-15T05:59:12;4.90;99.90
16700;DHT22;8466;52.286;21.124;2023-01-15T06:01:41;5.00;99.90
16700;DHT22;8466;52.286;21.124;2023-01-15T06:04:11;5.10;99.90
16700;DHT22;8466;52.286;21.124;2023-01-15T06:06:41;5.10;99.90
16700;DHT22;8466;52.286;21.124;2023-01-15T06:09:10;5.10;99.90
16700;DHT22;8466;52.286;21.124;2023-01-15T06:11:40;5.10;99.90
16700;DHT22;8466;52.286;21.124;2023-01-15T06:14:09;5.10;99.90
16700;DHT22;8466;52.286;21.124;2023-01-15T06:16:38;5.10;99.90
16700;DHT22;8466;52.286;21.124;2023-01-15T06:19:08;5.10;99.90
16700;DHT22;8466;52.286;21.124;2023-01-15T06:21:38;5.10;99.90
16700;DHT22;8466;52.286;21.124;2023-01-15T06:24:08;5.10;99.90
16700;DHT22;8466;52.286;21.124;2023-01-15T06:26:37;5.10;99.90
16700;DHT22;8466;52.286;21.124;2023-01-15T06:29:06;5.10;99.90
16700;DHT22;8466;52.286;21.124;2023-01-15T06:31:35;5.10;99.90
16700;DHT22;8466;52.286;21.124;2023-01-15T06:34:05;5.10;99.90
16700;DHT22;8466;52.286;21.124;2023-01-15T06:36:34;5.20;99.90
16700;DHT22;8466;52.286;21.124;2023-01-15T06:39:04;5.20;99.90
16700;DHT22;8466;52.286;21.124;2023-01-15T06:41:33;5.10;99.90
16700;DHT22;8466;52.286;21.124;2023-01-15T06:44:19;5.10;99.90
16700;DHT22;8466;52.286;21.124;2023-01-15T06:47:12;5.10;99.90
16700;DHT22;8466;52.286;21.124;2023-01-15T06:49:52;5.20;99.90
16700;DHT22;8466;52.286;21.124;2023-01-15T06:52:22;5.20;99.90
16700;DHT22;8466;52.286;21.124;2023-01-15T06:54:53;5.20;99.90
16700;DHT22;8466;52.286;21.124;2023-01-15T06:57:21;5.30;99.90
16700;DHT22;8466;52.286;21.124;2023-01-15T06:59:50;5.30;99.90
16700;DHT22;8466;52.286;21.124;2023-01-15T07:02:20;5.30;99.90
16700;DHT22;8466;52.286;21.124;2023-01-15T07:04:49;5.30;99.90
16700;DHT22;8466;52.286;21.124;2023-01-15T07:07:19;5.30;99.90
16700;DHT22;8466;52.286;21.124;2023-01-15T07:09:48;5.30;99.90
16700;DHT22;8466;52.286;21.124;2023-01-15T07:12:18;5.40;99.90
16700;DHT22;8466;52.286;21.124;2023-01-15T07:14:47;5.40;99.90
16700;DHT22;8466;52.286;21.124;2023-01-15T07:17:16;5.30;99.90
16700;DHT22;8466;52.286;21.124;2023-01-15T07:19:45;5.30;99.90
16700;DHT22;8466;52.286;21.124;2023-01-15T07:22:14;5.20;99.90
16700;DHT22;8466;52.286;21.124;2023-01-15T07:24:42;5.10;99.90
16700;DHT22;8466;52.286;21.124;2023-01-15T07:27:12;5.10;99.90
16700;DHT22;8466;52.286;21.124;2023-01-15T07:29:42;5.10;99.90
16700;DHT22;8466;52.286;21.124;2023-01-15T07:32:11;5.00;99.90
16700;DHT22;8466;52.286;21.124;2023-01-15T07:34:40;5.00;99.90
16700;DHT22;8466;52.286;21.124;2023-01-15T07:37:09;5.00;99.90
16700;DHT22;8466;52.286;21.124;2023-01-15T07:39:37;5.00;99.90
16700;DHT22;8466;52.286;21.124;2023-01-15T07:42:09;5.00;99.90
16700;DHT22;8466;52.286;21.124;2023-01-15T07:44:56;5.00;99.90
16700;DHT22;8466;52.286;21.124;2023-01-15T07:47:42;5.00;99.90
16700;DHT22;8466;52.286;21.124;2023-01-15T07:50:43;5.00;99.90
16700;DHT22;8466;52.286;21.124;2023-01-15T07:53:12;5.20;99.90
16700;DHT22;8466;52.286;21.124;2023-01-15T07:55:40;5.10;99.90
16700;DHT22;8466;52.286;21.124;2023-01-15T07:58:09;5.10;99.90
16700;DHT22;8466;52.286;21.124;2023-01-15T08:00:39;5.10;99.90
16700;DHT22;8466;52.286;21.124;2023-01-15T08:03:08;5.10;99.90
16700;DHT22;8466;52.286;21.124;2023-01-15T08:05:37;5.20;99.90
16700;DHT22;8466;52.286;21.124;2023-01-15T08:08:05;5.20;99.90
16700;DHT22;8466;52.286;21.124;2023-01-15T08:10:41;5.30;99.90
16700;DHT22;8466;52.286;21.124;2023-01-15T08:13:32;5.30;99.90
16700;DHT22;8466;52.286;21.124;2023-01-15T08:16:25;5.30;99.90
16700;DHT22;8466;52.286;21.124;2023-01-15T08:18:54;5.30;99.90
16700;DHT22;8466;52.286;21.124;2023-01-15T08:21:23;5.40;99.90
16700;DHT22;8466;52.286;21.124;2023-01-15T08:23:52;5.40;99.90
16700;DHT22;8466;52.286;21.124;2023-01-15T08:26:21;5.40;99.90
16700;DHT22;8466;52.286;21.124;2023-01-15T08:28:49;5.40;99.90
16700;DHT22;8466;52.286;21.124;2023-01-15T08:31:18;5.60;99.90
16700;DHT22;8466;52.286;21.124;2023-01-15T08:33:48;5.60;99.90
16700;DHT22;8466;52.286;21.124;2023-01-15T08:36:17;5.60;99.90
16700;DHT22;8466;52.286;21.124;2023-01-15T08:38:48;5.60;99.90
16700;DHT22;8466;52.286;21.124;2023-01-15T08:41:29;5.70;99.90
16700;DHT22;8466;52.286;21.124;2023-01-15T08:43:58;5.70;99.90
16700;DHT22;8466;52.286;21.124;2023-01-15T08:46:27;5.70;99.90
16700;DHT22;8466;52.286;21.124;2023-01-15T08:48:57;5.80;99.90
16700;DHT22;8466;52.286;21.124;2023-01-15T08:51:26;5.90;99.90
16700;DHT22;8466;52.286;21.124;2023-01-15T08:53:55;5.90;99.90
16700;DHT22;8466;52.286;21.124;2023-01-15T08:56:23;5.90;99.90
16700;DHT22;8466;52.286;21.124;2023-01-15T08:58:52;6.00;99.90
16700;DHT22;8466;52.286;21.124;2023-01-15T09:01:21;6.00;99.90
16700;DHT22;8466;52.286;21.124;2023-01-15T09:03:49;6.00;99.90
16700;DHT22;8466;52.286;21.124;2023-01-15T09:06:19;6.00;99.90
16700;DHT22;8466;52.286;21.124;2023-01-15T09:08:48;5.90;99.90
16700;DHT22;8466;52.286;21.124;2023-01-15T09:11:17;5.90;99.90
16700;DHT22;8466;52.286;21.124;2023-01-15T09:13:45;6.00;99.90
16700;DHT22;8466;52.286;21.124;2023-01-15T09:16:16;6.10;99.90
16700;DHT22;8466;52.286;21.124;2023-01-15T09:18:45;6.10;99.90
16700;DHT22;8466;52.286;21.124;2023-01-15T09:21:14;6.10;99.90
16700;DHT22;8466;52.286;21.124;2023-01-15T09:23:44;6.10;99.90
16700;DHT22;8466;52.286;21.124;2023-01-15T09:26:27;6.10;99.90
16700;DHT22;8466;52.286;21.124;2023-01-15T09:28:56;6.10;99.90
16700;DHT22;8466;52.286;21.124;2023-01-15T09:31:26;6.10;99.90
16700;DHT22;8466;52.286;21.124;2023-01-15T09:33:55;6.00;99.90
16700;DHT22;8466;52.286;21.124;2023-01-15T09:36:27;6.00;99.90
16700;DHT22;8466;52.286;21.124;2023-01-15T09:39:00;6.00;99.90
16700;DHT22;8466;52.286;21.124;2023-01-15T09:41:38;6.00;99.90
16700;DHT22;8466;52.286;21.124;2023-01-15T09:47:38;5.80;99.90
16700;DHT22;8466;52.286;21.124;2023-01-15T09:50:17;5.80;99.90
16700;DHT22;8466;52.286;21.124;2023-01-15T09:53:09;5.80;99.90
16700;DHT22;8466;52.286;21.124;2023-01-15T09:55:45;5.80;99.90
16700;DHT22;8466;52.286;21.124;2023-01-15T09:58:16;5.80;99.90
16700;DHT22;8466;52.286;21.124;2023-01-15T10:00:48;5.80;99.90
16700;DHT22;8466;52.286;21.124;2023-01-15T10:03:26;5.80;99.90
16700;DHT22;8466;52.286;21.124;2023-01-15T10:06:02;5.90;99.90
16700;DHT22;8466;52.286;21.124;2023-01-15T10:08:35;5.90;99.90
16700;DHT22;8466;52.286;21.124;2023-01-15T10:11:23;5.90;99.90
16700;DHT22;8466;52.286;21.124;2023-01-15T10:14:31;5.90;99.90
16700;DHT22;8466;52.286;21.124;2023-01-15T10:17:17;5.90;99.90
16700;DHT22;8466;52.286;21.124;2023-01-15T10:19:47;5.90;99.90
16700;DHT22;8466;52.286;21.124;2023-01-15T10:22:34;5.90;99.90
16700;DHT22;8466;52.286;21.124;2023-01-15T10:25:14;5.90;99.90
16700;DHT22;8466;52.286;21.124;2023-01-15T10:27:46;6.00;99.90
16700;DHT22;8466;52.286;21.124;2023-01-15T10:30:24;6.00;99.90
16700;DHT22;8466;52.286;21.124;2023-01-15T10:33:05;6.00;99.90
16700;DHT22;8466;52.286;21.124;2023-01-15T10:35:44;6.00;99.90
16700;DHT22;8466;52.286;21.124;2023-01-15T10:38:20;6.10;99.90
16700;DHT22;8466;52.286;21.124;2023-01-15T10:41:22;6.10;99.90
16700;DHT22;8466;52.286;21.124;2023-01-15T10:43:59;6.10;99.90
16700;DHT22;8466;52.286;21.124;2023-01-15T10:46:34;6.20;99.90
16700;DHT22;8466;52.286;21.124;2023-01-15T10:49:11;6.10;99.90
16700;DHT22;8466;52.286;21.124;2023-01-15T10:51:43;6.10;99.90
16700;DHT22;8466;52.286;21.124;2023-01-15T10:54:19;6.10;99.90
16700;DHT22;8466;52.286;21.124;2023-01-15T10:56:54;6.10;99.90
16700;DHT22;8466;52.286;21.124;2023-01-15T10:59:37;6.00;99.90
16700;DHT22;8466;52.286;21.124;2023-01-15T11:02:24;6.00;99.90
16700;DHT22;8466;52.286;21.124;2023-01-15T11:04:57;6.00;99.90
16700;DHT22;8466;52.286;21.124;2023-01-15T11:07:33;6.00;99.90
16700;DHT22;8466;52.286;21.124;2023-01-15T11:10:11;6.00;99.90
16700;DHT22;8466;52.286;21.124;2023-01-15T11:12:47;6.00;99.90
16700;DHT22;8466;52.286;21.124;2023-01-15T11:15:37;5.90;99.90
16700;DHT22;8466;52.286;21.124;2023-01-15T11:18:26;6.00;99.90
16700;DHT22;8466;52.286;21.124;2023-01-15T11:21:15;5.90;99.90
16700;DHT22;8466;52.286;21.124;2023-01-15T11:23:44;5.90;99.90
16700;DHT22;8466;52.286;21.124;2023-01-15T11:26:18;5.90;99.90
16700;DHT22;8466;52.286;21.124;2023-01-15T11:28:48;5.90;99.90
16700;DHT22;8466;52.286;21.124;2023-01-15T11:31:18;5.80;99.90
16700;DHT22;8466;52.286;21.124;2023-01-15T11:33:57;5.80;99.90
16700;DHT22;8466;52.286;21.124;2023-01-15T11:36:27;5.90;99.90
16700;DHT22;8466;52.286;21.124;2023-01-15T11:38:57;5.90;99.90
16700;DHT22;8466;52.286;21.124;2023-01-15T11:41:28;5.90;99.90
16700;DHT22;8466;52.286;21.124;2023-01-15T11:44:19;5.90;99.90
16700;DHT22;8466;52.286;21.124;2023-01-15T11:47:11;5.90;99.90
16700;DHT22;8466;52.286;21.124;2023-01-15T11:49:57;5.90;99.90
16700;DHT22;8466;52.286;21.124;2023-01-15T11:52:47;5.90;99.90
16700;DHT22;8466;52.286;21.124;2023-01-15T11:58:44;5.90;99.90
16700;DHT22;8466;52.286;21.124;2023-01-15T12:01:22;5.90;99.90
16700;DHT22;8466;52.286;21.124;2023-01-15T12:03:54;5.90;99.90
16700;DHT22;8466;52.286;21.124;2023-01-15T12:06:25;6.00;99.90
16700;DHT22;8466;52.286;21.124;2023-01-15T12:09:03;6.00;99.90
16700;DHT22;8466;52.286;21.124;2023-01-15T12:11:50;5.90;99.90
16700;DHT22;8466;52.286;21.124;2023-01-15T12:14:44;6.00;99.90
16700;DHT22;8466;52.286;21.124;2023-01-15T12:17:26;5.90;99.90
16700;DHT22;8466;52.286;21.124;2023-01-15T12:20:05;5.90;99.90
16700;DHT22;8466;52.286;21.124;2023-01-15T12:22:49;5.90;99.90
16700;DHT22;8466;52.286;21.124;2023-01-15T12:25:33;5.90;99.90
16700;DHT22;8466;52.286;21.124;2023-01-15T12:28:11;5.90;99.90
16700;DHT22;8466;52.286;21.124;2023-01-15T12:30:48;6.00;99.90
16700;DHT22;8466;52.286;21.124;2023-01-15T12:33:33;6.00;99.90
16700;DHT22;8466;52.286;21.124;2023-01-15T12:36:17;6.00;99.90
16700;DHT22;8466;52.286;21.124;2023-01-15T12:38:50;6.00;99.90
16700;DHT22;8466;52.286;21.124;2023-01-15T12:41:24;6.10;99.90
16700;DHT22;8466;52.286;21.124;2023-01-15T12:44:20;6.00;99.90
16700;DHT22;8466;52.286;21.124;2023-01-15T12:47:11;6.20;99.90
16700;DHT22;8466;52.286;21.124;2023-01-15T12:49:47;6.10;99.90
16700;DHT22;8466;52.286;21.124;2023-01-15T12:52:21;6.10;99.90
16700;DHT22;8466;52.286;21.124;2023-01-15T12:54:59;6.10;99.90
16700;DHT22;8466;52.286;21.124;2023-01-15T12:57:33;6.10;99.90
16700;DHT22;8466;52.286;21.124;2023-01-15T13:00:11;6.10;99.90
16700;DHT22;8466;52.286;21.124;2023-01-15T13:03:00;6.10;99.90
16700;DHT22;8466;52.286;21.124;2023-01-15T13:05:36;6.10;99.90
16700;DHT22;8466;52.286;21.124;2023-01-15T13:08:13;6.10;99.90
16700;DHT22;8466;52.286;21.124;2023-01-15T13:10:48;6.10;99.90
16700;DHT22;8466;52.286;21.124;2023-01-15T13:13:19;6.20;99.90
16700;DHT22;8466;52.286;21.124;2023-01-15T13:16:00;6.10;99.90
16700;DHT22;8466;52.286;21.124;2023-01-15T13:18:35;6.10;99.90
16700;DHT22;8466;52.286;21.124;2023-01-15T13:21:08;6.10;99.90
16700;DHT22;8466;52.286;21.124;2023-01-15T13:24:06;6.20;99.90
16700;DHT22;8466;52.286;21.124;2023-01-15T13:26:54;6.20;99.90
16700;DHT22;8466;52.286;21.124;2023-01-15T13:29:32;6.20;99.90
16700;DHT22;8466;52.286;21.124;2023-01-15T13:32:06;6.20;99.90
16700;DHT22;8466;52.286;21.124;2023-01-15T13:34:41;6.20;99.90
16700;DHT22;8466;52.286;21.124;2023-01-15T13:37:19;6.10;99.90
16700;DHT22;8466;52.286;21.124;2023-01-15T13:39:54;6.20;99.90
16700;DHT22;8466;52.286;21.124;2023-01-15T13:42:27;6.20;99.90
16700;DHT22;8466;52.286;21.124;2023-01-15T13:45:21;6.20;99.90
16700;DHT22;8466;52.286;21.124;2023-01-15T13:47:57;6.20;99.90
16700;DHT22;8466;52.286;21.124;2023-01-15T13:50:29;6.20;99.90
16700;DHT22;8466;52.286;21.124;2023-01-15T13:53:15;6.10;99.90
16700;DHT22;8466;52.286;21.124;2023-01-15T13:55:52;6.20;99.90
16700;DHT22;8466;52.286;21.124;2023-01-15T13:58:24;6.10;99.90
16700;DHT22;8466;52.286;21.124;2023-01-15T14:01:07;6.10;99.90
16700;DHT22;8466;52.286;21.124;2023-01-15T14:03:58;6.20;99.90
16700;DHT22;8466;52.286;21.124;2023-01-15T14:06:38;6.20;99.90
16700;DHT22;8466;52.286;21.124;2023-01-15T14:09:12;6.10;99.90
16700;DHT22;8466;52.286;21.124;2023-01-15T14:11:56;6.20;99.90
16700;DHT22;8466;52.286;21.124;2023-01-15T14:14:42;6.10;99.90
16700;DHT22;8466;52.286;21.124;2023-01-15T14:20:44;6.20;99.90
16700;DHT22;8466;52.286;21.124;2023-01-15T14:23:35;6.20;99.90
16700;DHT22;8466;52.286;21.124;2023-01-15T14:26:15;6.10;99.90
16700;DHT22;8466;52.286;21.124;2023-01-15T14:29:01;6.10;99.90
16700;DHT22;8466;52.286;21.124;2023-01-15T14:31:51;6.10;99.90
16700;DHT22;8466;52.286;21.124;2023-01-15T14:34:27;6.10;99.90
16700;DHT22;8466;52.286;21.124;2023-01-15T14:36:58;6.20;99.90
16700;DHT22;8466;52.286;21.124;2023-01-15T14:39:35;6.20;99.90
16700;DHT22;8466;52.286;21.124;2023-01-15T14:42:13;6.20;99.90
16700;DHT22;8466;52.286;21.124;2023-01-15T14:45:05;6.20;99.90
16700;DHT22;8466;52.286;21.124;2023-01-15T14:47:42;6.20;99.90
16700;DHT22;8466;52.286;21.124;2023-01-15T14:50:27;6.00;99.90
16700;DHT22;8466;52.286;21.124;2023-01-15T14:56:09;6.20;99.90
16700;DHT22;8466;52.286;21.124;2023-01-15T14:58:45;6.20;99.90
16700;DHT22;8466;52.286;21.124;2023-01-15T15:01:29;6.10;99.90
16700;DHT22;8466;52.286;21.124;2023-01-15T15:04:12;6.10;99.90
16700;DHT22;8466;52.286;21.124;2023-01-15T15:06:45;6.10;99.90
16700;DHT22;8466;52.286;21.124;2023-01-15T15:09:26;6.10;99.90
16700;DHT22;8466;52.286;21.124;2023-01-15T15:12:24;6.10;99.90
16700;DHT22;8466;52.286;21.124;2023-01-15T15:15:06;6.10;99.90
16700;DHT22;8466;52.286;21.124;2023-01-15T15:17:46;6.00;99.90
16700;DHT22;8466;52.286;21.124;2023-01-15T15:20:21;6.10;99.90
16700;DHT22;8466;52.286;21.124;2023-01-15T15:22:56;6.10;99.90
16700;DHT22;8466;52.286;21.124;2023-01-15T15:25:31;6.10;99.90
16700;DHT22;8466;52.286;21.124;2023-01-15T15:28:02;6.10;99.90
16700;DHT22;8466;52.286;21.124;2023-01-15T15:30:33;6.10;99.90
16700;DHT22;8466;52.286;21.124;2023-01-15T15:33:04;6.20;99.90
16700;DHT22;8466;52.286;21.124;2023-01-15T15:35:33;6.20;99.90
16700;DHT22;8466;52.286;21.124;2023-01-15T15:38:13;6.20;99.90
16700;DHT22;8466;52.286;21.124;2023-01-15T15:40:46;6.20;99.90
16700;DHT22;8466;52.286;21.124;2023-01-15T15:43:20;6.20;99.90
16700;DHT22;8466;52.286;21.124;2023-01-15T15:46:22;6.20;99.90
16700;DHT22;8466;52.286;21.124;2023-01-15T15:49:06;6.20;99.90
16700;DHT22;8466;52.286;21.124;2023-01-15T15:51:37;6.30;99.90
16700;DHT22;8466;52.286;21.124;2023-01-15T15:54:12;6.30;99.90
16700;DHT22;8466;52.286;21.124;2023-01-15T15:56:47;6.30;99.90
16700;DHT22;8466;52.286;21.124;2023-01-15T15:59:30;6.30;99.90
16700;DHT22;8466;52.286;21.124;2023-01-15T16:02:07;6.30;99.90
16700;DHT22;8466;52.286;21.124;2023-01-15T16:04:48;6.40;99.90
16700;DHT22;8466;52.286;21.124;2023-01-15T16:07:22;6.40;99.90
16700;DHT22;8466;52.286;21.124;2023-01-15T16:09:58;6.40;99.90
16700;DHT22;8466;52.286;21.124;2023-01-15T16:12:28;6.40;99.90
16700;DHT22;8466;52.286;21.124;2023-01-15T16:14:59;6.40;99.90
16700;DHT22;8466;52.286;21.124;2023-01-15T16:17:28;6.40;99.90
16700;DHT22;8466;52.286;21.124;2023-01-15T16:19:59;6.40;99.90
16700;DHT22;8466;52.286;21.124;2023-01-15T16:22:28;6.40;99.90
16700;DHT22;8466;52.286;21.124;2023-01-15T16:24:57;6.40;99.90
16700;DHT22;8466;52.286;21.124;2023-01-15T16:27:30;6.50;99.90
16700;DHT22;8466;52.286;21.124;2023-01-15T16:30:02;6.50;99.90
16700;DHT22;8466;52.286;21.124;2023-01-15T16:32:32;6.50;99.90
16700;DHT22;8466;52.286;21.124;2023-01-15T16:35:06;6.60;99.90
16700;DHT22;8466;52.286;21.124;2023-01-15T16:37:45;6.60;99.90
16700;DHT22;8466;52.286;21.124;2023-01-15T16:40:22;6.60;99.90
16700;DHT22;8466;52.286;21.124;2023-01-15T16:43:03;6.60;99.90
16700;DHT22;8466;52.286;21.124;2023-01-15T16:45:34;6.80;99.90